Time;durP1;ratioP1;P1;durP2;ratioP2;P2;SDS_P1;SDS_P2;PMS_P1;PMS_P2;Temp;Humidity;BMP_temperature;BMP_pressure;BME280_temperature;BME280_humidity;BME280_pressure;Samples;Min_cycle;Max_cycle;Signal;HPM_P1;HPM_P2
2023/05/02 00:01:33;;;;;;;25.23;20.57;;;;;;;-145.94;60.24;77350.94;5115177;28;20268;-70
2023/05/02 00:03:59;;;;;;;29.27;22.53;;;;;;;-145.94;60.69;77377.47;5114565;28;20185;-70
2023/05/02 00:06:26;;;;;;;35.33;23.10;;;;;;;-145.94;60.87;77397.84;5114449;28;20288;-70
2023/05/02 00:08:53;;;;;;;35.43;23.40;;;;;;;-145.94;60.68;77395.81;5114733;28;20192;-70
2023/05/02 00:11:19;;;;;;;33.13;24.07;;;;;;;-145.94;61.07;77414.16;5114411;28;20647;-70
2023/05/02 00:13:46;;;;;;;32.53;24.10;;;;;;;-145.94;61.21;77418.25;5114395;28;20185;-70
2023/05/02 00:16:12;;;;;;;31.47;23.80;;;;;;;-145.94;61.40;77442.72;5114303;28;20204;-70
2023/05/02 00:18:38;;;;;;;40.40;25.27;;;;;;;-145.94;61.79;77442.72;5114231;28;20682;-70
2023/05/02 00:21:05;;;;;;;39.77;26.20;;;;;;;-145.94;62.04;77452.91;5114546;28;20604;-70
2023/05/02 00:23:32;;;;;;;39.83;26.00;;;;;;;-145.94;62.52;77465.16;5114456;28;20275;-70
2023/05/02 00:25:58;;;;;;;40.13;26.13;;;;;;;-145.94;62.32;77465.16;5113349;27;20709;-70
2023/05/02 00:28:25;;;;;;;45.40;27.87;;;;;;;-145.94;62.50;77463.13;5113882;28;20272;-70
2023/05/02 00:30:52;;;;;;;40.47;27.50;;;;;;;-145.94;62.50;77465.16;5114075;28;20186;-70
2023/05/02 00:33:19;;;;;;;44.93;26.57;;;;;;;-145.94;62.42;77465.16;5114318;28;20215;-70
2023/05/02 00:35:45;;;;;;;45.00;26.80;;;;;;;-145.94;62.39;77467.19;5114389;28;20548;-70
2023/05/02 00:38:11;;;;;;;48.50;27.30;;;;;;;-145.94;62.61;77471.28;5114212;28;20635;-70
2023/05/02 00:40:45;;;;;;;42.70;28.03;;;;;;;-145.94;62.83;77471.28;5114243;28;20548;-70
2023/05/02 00:43:13;;;;;;;47.77;29.00;;;;;;;-145.94;63.31;77463.13;5096262;28;20242;-70
2023/05/02 00:45:42;;;;;;;50.07;29.50;;;;;;;-145.94;63.42;77471.28;5095839;28;20231;-70
2023/05/02 00:48:09;;;;;;;54.73;30.93;;;;;;;-145.94;63.59;77473.31;5113919;28;20230;-70
2023/05/02 00:50:39;;;;;;;49.73;29.10;;;;;;;-145.94;63.72;77465.16;5114389;28;20173;-70
2023/05/02 00:53:06;;;;;;;46.63;29.63;;;;;;;-145.94;63.90;77469.25;5114089;28;20177;-70
2023/05/02 00:55:33;;;;;;;52.27;32.37;;;;;;;-145.94;63.98;77481.47;5095438;28;20216;-70
2023/05/02 00:58:02;;;;;;;49.70;30.87;;;;;;;-145.94;63.97;77471.28;5095538;28;20290;-70
2023/05/02 01:01:06;;;;;;;53.77;30.03;;;;;;;-145.94;63.94;77469.25;5114154;28;20204;-70
2023/05/02 01:03:41;;;;;;;52.00;32.33;;;;;;;-145.94;63.79;77479.44;5113655;28;20195;-70
2023/05/02 01:06:32;;;;;;;59.53;32.37;;;;;;;-145.94;63.83;77485.56;5114248;28;20372;-70
2023/05/02 01:09:33;;;;;;;51.70;31.57;;;;;;;-145.94;63.79;77493.72;5113658;28;20158;-70
2023/05/02 01:12:09;;;;;;;62.00;32.67;;;;;;;-145.94;64.19;77505.94;5113609;28;20619;-70
2023/05/02 01:14:41;;;;;;;59.10;33.30;;;;;;;-145.94;64.55;77508.00;5113915;28;20205;-70
2023/05/02 01:17:12;;;;;;;59.80;32.83;;;;;;;-145.94;64.68;77495.75;5113768;28;20215;-71
2023/05/02 01:19:42;;;;;;;56.13;31.87;;;;;;;-145.94;65.02;77501.88;5113738;28;20749;-71
2023/05/02 01:22:10;;;;;;;68.90;32.90;;;;;;;-145.94;65.23;77491.66;5113592;28;20187;-71
2023/05/02 01:24:58;;;;;;;52.97;31.63;;;;;;;-145.94;65.43;77483.50;5095277;28;20215;-70
2023/05/02 01:27:56;;;;;;;59.77;28.93;;;;;;;-145.94;65.57;77493.72;5095091;28;20227;-70
2023/05/02 01:30:25;;;;;;;55.23;28.83;;;;;;;-145.94;65.64;77493.72;5114018;28;20177;-70
2023/05/02 01:32:54;;;;;;;52.20;28.60;;;;;;;-145.94;65.85;77487.59;5095178;28;20196;-70
2023/05/02 01:35:22;;;;;;;53.03;29.03;;;;;;;-145.94;65.60;77483.50;5113586;28;20237;-70
2023/05/02 01:37:50;;;;;;;55.40;28.37;;;;;;;-145.94;65.58;77491.66;5114983;28;20188;-70
2023/05/02 01:40:19;;;;;;;50.17;28.13;;;;;;;-145.94;65.86;77491.66;5117579;28;20205;-70
2023/05/02 01:42:50;;;;;;;51.03;27.03;;;;;;;-145.94;65.66;77497.78;5117895;28;20193;-70
2023/05/02 01:45:19;;;;;;;50.90;27.07;;;;;;;-145.94;65.92;77487.59;5117524;28;20261;-70
2023/05/02 01:47:47;;;;;;;56.90;27.90;;;;;;;-145.94;65.85;77493.72;5117190;28;20185;-70
2023/05/02 01:50:17;;;;;;;49.70;26.77;;;;;;;-145.94;66.14;77497.78;5117201;28;20181;-70
2023/05/02 01:52:46;;;;;;;60.40;27.93;;;;;;;-145.94;65.63;77493.72;5098916;28;20187;-70
2023/05/02 01:55:14;;;;;;;50.37;25.33;;;;;;;-145.94;65.66;77499.84;5117070;28;20670;-69
2023/05/02 01:57:43;;;;;;;49.30;25.87;;;;;;;-145.94;65.62;77491.66;5098762;28;20291;-69
2023/05/02 02:00:11;;;;;;;48.20;24.10;;;;;;;-145.94;65.41;77493.72;5098672;28;20304;-70
2023/05/02 02:02:44;;;;;;;38.03;22.13;;;;;;;-145.94;65.46;77499.84;5099562;28;20605;-70
2023/05/02 02:05:13;;;;;;;39.80;21.33;;;;;;;-145.94;65.45;77503.91;5098773;28;20197;-70
2023/05/02 02:07:39;;;;;;;39.80;21.83;;;;;;;-145.94;65.37;77499.84;5098590;28;20222;-70
2023/05/02 02:10:06;;;;;;;46.33;22.03;;;;;;;-145.94;65.60;77499.84;5098549;28;20193;-70
2023/05/02 02:12:44;;;;;;;45.03;22.33;;;;;;;-145.94;65.52;77501.88;5116757;28;20199;-70
2023/05/02 02:15:30;;;;;;;43.97;21.47;;;;;;;-145.94;65.65;77499.84;5116960;28;20173;-70
2023/05/02 02:18:08;;;;;;;40.07;20.40;;;;;;;-145.94;65.36;77508.00;5117245;28;20201;-70
2023/05/02 02:20:35;;;;;;;40.30;20.47;;;;;;;-145.94;65.30;77501.88;5117136;28;20193;-71
2023/05/02 02:23:05;;;;;;;37.37;22.10;;;;;;;-145.94;65.55;77503.91;5117073;28;20277;-70
2023/05/02 02:25:33;;;;;;;38.47;19.13;;;;;;;-145.94;65.36;77510.03;5098155;28;20209;-71
2023/05/02 02:28:00;;;;;;;37.40;18.97;;;;;;;-145.94;65.66;77512.06;5116285;28;20195;-71
2023/05/02 02:30:26;;;;;;;32.17;17.30;;;;;;;-145.94;65.74;77514.09;5116463;28;20177;-71
2023/05/02 02:32:53;;;;;;;39.90;18.10;;;;;;;-145.94;65.72;77518.19;5116607;28;20177;-71
2023/05/02 02:35:19;;;;;;;34.43;18.23;;;;;;;-145.94;65.68;77522.25;5097948;28;20563;-70
2023/05/02 02:38:25;;;;;;;26.20;16.83;;;;;;;-145.94;65.70;77518.19;5097984;28;20285;-71
2023/05/02 02:41:10;;;;;;;28.57;16.03;;;;;;;-145.94;65.74;77520.22;5116151;28;20207;-71
2023/05/02 02:43:52;;;;;;;33.53;17.33;;;;;;;-145.94;65.63;77526.34;5116155;28;20273;-71
2023/05/02 02:46:33;;;;;;;33.00;17.00;;;;;;;-145.94;65.71;77520.22;5116098;28;20624;-70
2023/05/02 02:49:44;;;;;;;25.97;15.20;;;;;;;-145.94;65.65;77526.34;5115442;28;20161;-70
2023/05/02 02:52:31;;;;;;;33.37;16.47;;;;;;;-145.94;65.76;77522.25;5116269;28;20574;-71
2023/05/02 02:55:15;;;;;;;27.50;15.33;;;;;;;-145.94;65.39;77532.47;5115737;28;20679;-71
2023/05/02 02:57:56;;;;;;;26.80;15.27;;;;;;;-145.94;65.16;77528.38;5115891;28;20188;-71
2023/05/02 03:00:26;;;;;;;18.57;13.07;;;;;;;-145.94;64.92;77534.50;5098413;28;20596;-71
2023/05/02 03:02:54;;;;;;;17.87;13.80;;;;;;;-145.94;64.70;77530.44;5116051;28;20519;-71
2023/05/02 03:05:21;;;;;;;13.43;11.80;;;;;;;-145.94;64.79;77530.44;5115950;28;20181;-70
2023/05/02 03:07:49;;;;;;;20.20;12.80;;;;;;;-145.94;64.54;77526.34;5115973;28;20268;-71
2023/05/02 03:10:16;;;;;;;19.57;13.00;;;;;;;-145.94;64.37;77530.44;5097361;28;20185;-71
2023/05/02 03:12:43;;;;;;;21.67;12.83;;;;;;;-145.94;64.56;77528.38;5115859;28;20182;-70
2023/05/02 03:15:31;;;;;;;21.53;13.70;;;;;;;-145.94;64.54;77522.25;5115475;28;20260;-70
2023/05/02 03:17:58;;;;;;;20.43;14.03;;;;;;;-145.94;64.69;77528.38;5098152;28;20182;-70
2023/05/02 03:20:24;;;;;;;20.50;13.17;;;;;;;-145.94;64.79;77524.31;5097076;28;20248;-70
2023/05/02 03:22:52;;;;;;;24.50;14.30;;;;;;;-145.94;64.72;77526.34;5097178;28;20197;-70
2023/05/02 03:25:18;;;;;;;23.27;14.53;;;;;;;-145.94;64.64;77520.22;5097001;28;20566;-69
2023/05/02 03:27:47;;;;;;;20.40;12.63;;;;;;;-145.94;64.71;77526.34;5096874;28;20203;-70
2023/05/02 03:30:14;;;;;;;23.27;14.47;;;;;;;-145.94;64.62;77516.16;5096961;28;20181;-70
2023/05/02 03:32:40;;;;;;;21.97;12.97;;;;;;;-145.94;64.56;77522.25;5096960;28;20571;-70
2023/05/02 03:35:07;;;;;;;19.50;13.17;;;;;;;-145.94;64.60;77528.38;5115194;28;20211;-70
2023/05/02 03:37:38;;;;;;;29.47;14.37;;;;;;;-145.94;64.73;77520.22;5096867;28;20185;-69
2023/05/02 03:40:05;;;;;;;18.63;13.10;;;;;;;-145.94;64.32;77524.31;5096709;28;20213;-69
2023/05/02 03:42:38;;;;;;;23.33;12.30;;;;;;;-145.94;64.25;77522.25;5114937;28;20200;-70
2023/05/02 03:45:09;;;;;;;16.77;12.40;;;;;;;-145.94;64.34;77530.44;5097019;28;20193;-70
2023/05/02 03:47:35;;;;;;;19.10;12.00;;;;;;;-145.94;64.36;77534.50;5096645;28;20193;-70
2023/05/02 03:50:02;;;;;;;19.40;12.23;;;;;;;-145.94;64.41;77532.47;5097235;28;20543;-70
2023/05/02 03:52:30;;;;;;;21.70;13.37;;;;;;;-145.94;64.55;77534.50;5097043;28;20189;-70
2023/05/02 03:54:56;;;;;;;18.40;12.03;;;;;;;-145.94;64.52;77532.47;5096574;28;20185;-70
2023/05/02 03:57:23;;;;;;;23.27;12.27;;;;;;;-145.94;64.45;77532.47;5114957;28;20197;-70
2023/05/02 03:59:49;;;;;;;18.07;12.03;;;;;;;-145.94;64.52;77530.44;5115095;28;20621;-70
2023/05/02 04:02:24;;;;;;;24.27;13.17;;;;;;;-145.94;64.63;77540.63;5096163;28;20194;-70
2023/05/02 04:04:50;;;;;;;22.13;12.87;;;;;;;-145.94;64.67;77534.50;5114584;28;20185;-70
2023/05/02 04:07:20;;;;;;;20.13;13.43;;;;;;;-145.94;64.58;77536.53;5114930;28;20197;-70
2023/05/02 04:09:54;;;;;;;19.47;13.47;;;;;;;-145.94;64.60;77540.63;5096518;28;20188;-70
2023/05/02 04:12:20;;;;;;;18.00;12.70;;;;;;;-145.94;64.82;77542.66;5114419;28;20181;-70
2023/05/02 04:14:49;;;;;;;21.67;12.87;;;;;;;-145.94;64.98;77544.69;5096150;28;20220;-70
2023/05/02 04:17:16;;;;;;;21.70;12.73;;;;;;;-145.94;65.45;77554.91;5096051;28;20285;-71
2023/05/02 04:19:47;;;;;;;18.67;12.23;;;;;;;-145.94;65.74;77563.06;5096067;28;20281;-71
2023/05/02 04:22:15;;;;;;;29.70;14.07;;;;;;;-145.94;66.07;77569.19;5096542;28;20532;-71
2023/05/02 04:24:46;;;;;;;26.33;14.47;;;;;;;-145.94;66.46;77575.28;5096002;28;20192;-71
2023/05/02 04:27:13;;;;;;;19.37;14.20;;;;;;;-145.94;66.80;77587.53;5095879;28;20221;-71
2023/05/02 04:29:41;;;;;;;24.23;13.10;;;;;;;-145.94;67.07;77585.50;5095991;28;20189;-70
2023/05/02 04:32:09;;;;;;;26.20;14.60;;;;;;;-145.94;67.24;77589.56;5095835;28;20266;-70
2023/05/02 04:34:35;;;;;;;25.93;13.90;;;;;;;-145.94;67.29;77589.56;5096034;28;20678;-70
2023/05/02 04:37:02;;;;;;;26.37;13.57;;;;;;;-145.94;67.42;77595.69;5095884;28;20662;-70
2023/05/02 04:39:29;;;;;;;27.20;14.73;;;;;;;-145.94;67.76;77597.72;5095612;28;20276;-70
2023/05/02 04:42:00;;;;;;;32.57;15.60;;;;;;;-145.94;67.83;77599.78;5096533;28;20593;-70
2023/05/02 04:44:30;;;;;;;22.87;14.67;;;;;;;-145.94;67.70;77595.69;5095912;28;20196;-70
2023/05/02 04:46:56;;;;;;;21.73;14.90;;;;;;;-145.94;68.04;77601.81;5095605;28;20270;-70
2023/05/02 04:49:23;;;;;;;24.93;14.70;;;;;;;-145.94;68.26;77601.81;5095642;28;20280;-70
2023/05/02 04:51:51;;;;;;;30.77;15.20;;;;;;;-145.94;68.39;77614.03;5095575;28;20685;-70
2023/05/02 04:54:18;;;;;;;26.70;14.50;;;;;;;-145.94;68.53;77614.03;5095455;28;20215;-71
2023/05/02 04:56:46;;;;;;;24.43;14.63;;;;;;;-145.94;68.98;77628.31;5095528;28;20257;-71
2023/05/02 04:59:13;;;;;;;26.20;13.13;;;;;;;-145.94;69.17;77642.59;5095614;28;20237;-71
2023/05/02 05:01:40;;;;;;;13.63;10.73;;;;;;;-145.94;69.22;77654.84;5113496;28;20299;-71
2023/05/02 05:04:07;;;;;;;13.83;11.03;;;;;;;-145.94;69.64;77671.16;5095429;28;20666;-71
2023/05/02 05:06:34;;;;;;;12.80;11.30;;;;;;;-145.94;69.68;77677.28;5095365;28;20665;-71
2023/05/02 05:09:02;;;;;;;10.20;9.23;;;;;;;-145.94;69.35;77681.34;5095328;28;20630;-70
2023/05/02 05:11:29;;;;;;;11.13;10.00;;;;;;;-145.94;69.63;77697.66;5095365;28;20619;-71
2023/05/02 05:13:56;;;;;;;12.03;9.93;;;;;;;-145.94;69.28;77697.66;5098389;28;20196;-70
2023/05/02 05:16:22;;;;;;;9.37;8.87;;;;;;;-145.94;69.22;77703.78;5099447;28;20263;-71
2023/05/02 05:18:52;;;;;;;11.97;9.13;;;;;;;-145.94;68.67;77718.06;5117681;28;20549;-70
2023/05/02 05:21:19;;;;;;;13.27;9.07;;;;;;;-145.94;68.55;77718.06;5117561;28;20644;-71
2023/05/02 05:23:46;;;;;;;14.63;8.27;;;;;;;-145.94;68.36;77720.09;5099378;28;20544;-70
2023/05/02 05:26:18;;;;;;;8.63;7.87;;;;;;;-145.94;68.58;77714.00;5099208;28;20216;-70
2023/05/02 05:28:46;;;;;;;8.07;7.57;;;;;;;-145.94;68.30;77722.16;5099348;28;20185;-71
2023/05/02 05:31:16;;;;;;;8.67;7.90;;;;;;;-145.94;68.28;77722.16;5099191;28;20192;-71
2023/05/02 05:33:46;;;;;;;12.20;8.30;;;;;;;-145.94;68.04;77728.25;5099128;28;20189;-71
2023/05/02 05:36:16;;;;;;;8.60;7.93;;;;;;;-145.94;67.92;77728.25;5099162;28;20216;-71
2023/05/02 05:38:43;;;;;;;8.20;7.33;;;;;;;-145.94;67.77;77736.44;5099089;28;20215;-70
2023/05/02 05:41:10;;;;;;;8.40;7.67;;;;;;;-145.94;67.62;77730.31;5099007;28;20219;-70
2023/05/02 05:43:40;;;;;;;8.83;8.20;;;;;;;-145.94;67.20;77732.34;5099884;28;20300;-70
2023/05/02 05:46:07;;;;;;;8.27;7.47;;;;;;;-145.94;67.67;77728.25;5098960;28;20236;-70
2023/05/02 05:48:35;;;;;;;8.30;7.73;;;;;;;-145.94;67.47;77730.31;5098904;28;20205;-70
2023/05/02 05:51:04;;;;;;;7.50;7.20;;;;;;;-145.94;67.14;77730.31;5098823;28;20288;-69
2023/05/02 05:53:31;;;;;;;8.07;7.63;;;;;;;-145.94;66.42;77734.38;5098930;28;20617;-70
2023/05/02 05:56:06;;;;;;;11.43;7.80;;;;;;;-145.94;66.41;77740.50;5099060;28;20226;-71
2023/05/02 05:58:33;;;;;;;7.27;6.93;;;;;;;-145.94;66.31;77730.31;5117341;28;20266;-70
2023/05/02 06:00:59;;;;;;;7.40;7.00;;;;;;;-145.94;66.12;77732.34;5098951;28;20220;-70
2023/05/02 06:03:26;;;;;;;6.87;6.53;;;;;;;-145.94;66.07;77730.31;5116864;28;20192;-70
2023/05/02 06:05:53;;;;;;;7.23;6.57;;;;;;;-145.94;65.96;77730.31;5098460;28;20212;-71
2023/05/02 06:08:20;;;;;;;7.00;6.60;;;;;;;-145.94;65.61;77738.47;5098703;28;20194;-70
2023/05/02 06:10:46;;;;;;;6.20;5.80;;;;;;;-145.94;65.22;77730.31;5116775;28;20284;-69
2023/05/02 06:13:13;;;;;;;6.50;6.10;;;;;;;-145.94;65.41;77732.34;5098399;28;20189;-70
2023/05/02 06:15:42;;;;;;;7.07;6.77;;;;;;;-145.94;65.27;77732.34;5098382;28;20777;-70
2023/05/02 06:18:08;;;;;;;7.30;6.80;;;;;;;-145.94;65.36;77724.19;5098336;28;20572;-70
2023/05/02 06:20:35;;;;;;;11.43;7.10;;;;;;;-145.94;65.04;77730.31;5098291;28;20682;-70
2023/05/02 06:23:02;;;;;;;7.37;6.77;;;;;;;-145.94;65.15;77732.34;5116614;28;20173;-71
2023/05/02 06:25:29;;;;;;;8.43;6.67;;;;;;;-145.94;64.55;77732.34;5098115;28;20197;-70
2023/05/02 06:27:55;;;;;;;6.40;6.20;;;;;;;-145.94;64.05;77734.38;5116350;28;20215;-69
2023/05/02 06:30:21;;;;;;;6.33;5.93;;;;;;;-145.94;63.85;77734.38;5116886;28;20654;-69
2023/05/02 06:32:48;;;;;;;9.60;7.30;;;;;;;-145.94;64.29;77736.44;5116613;28;20190;-70
2023/05/02 06:35:14;;;;;;;7.70;7.17;;;;;;;-145.94;63.71;77744.59;5116262;28;20197;-70
2023/05/02 06:37:41;;;;;;;6.80;6.40;;;;;;;-145.94;63.97;77742.53;5116237;28;20271;-70
2023/05/02 06:40:08;;;;;;;9.30;7.00;;;;;;;-145.94;63.89;77750.69;5116110;28;20209;-69
2023/05/02 06:42:35;;;;;;;7.07;6.57;;;;;;;-145.94;63.66;77760.91;5116232;28;20184;-70
2023/05/02 06:45:01;;;;;;;6.83;5.43;;;;;;;-145.94;63.85;77764.97;5116177;28;20196;-70
2023/05/02 06:47:28;;;;;;;7.53;7.03;;;;;;;-145.94;63.81;77752.75;5116014;28;20691;-70
2023/05/02 06:49:54;;;;;;;6.77;6.00;;;;;;;-145.94;63.81;77760.91;5116036;28;20734;-70
2023/05/02 06:52:21;;;;;;;7.23;6.63;;;;;;;-145.94;63.33;77769.06;5115988;28;20306;-70
2023/05/02 06:54:47;;;;;;;7.30;6.40;;;;;;;-145.94;62.90;77764.97;5115905;28;20199;-70
2023/05/02 06:57:14;;;;;;;6.17;5.67;;;;;;;-145.94;63.29;77779.25;5115820;28;20713;-69
2023/05/02 06:59:40;;;;;;;6.13;5.93;;;;;;;-145.94;63.16;77775.19;5115862;28;20189;-69
2023/05/02 07:02:07;;;;;;;6.80;6.40;;;;;;;-145.94;62.96;77785.38;5115763;28;20201;-69
2023/05/02 07:04:33;;;;;;;6.23;5.73;;;;;;;-145.94;62.69;77793.53;5115773;28;20200;-69
2023/05/02 07:07:00;;;;;;;6.77;6.30;;;;;;;-145.94;62.85;77805.78;5115637;28;20558;-70
2023/05/02 07:09:26;;;;;;;7.10;6.43;;;;;;;-145.94;63.39;77822.09;5115647;28;20200;-70
2023/05/02 07:11:52;;;;;;;5.73;5.47;;;;;;;-145.94;63.97;77842.47;5115613;28;20196;-69
2023/05/02 07:14:19;;;;;;;5.50;5.30;;;;;;;-145.94;64.23;77848.59;5115592;28;20189;-70
2023/05/02 07:16:46;;;;;;;5.30;5.10;;;;;;;-145.94;64.88;77864.91;5116038;28;20200;-70
2023/05/02 07:19:12;;;;;;;5.67;4.90;;;;;;;-145.94;64.86;77869.00;5115497;28;20612;-69
2023/05/02 07:21:38;;;;;;;7.83;7.43;;;;;;;-145.94;65.00;77881.25;5115363;28;20299;-68
2023/05/02 07:24:05;;;;;;;4.77;4.57;;;;;;;-145.94;65.02;77885.31;5115647;28;20191;-68
2023/05/02 07:26:31;;;;;;;3.33;3.10;;;;;;;-145.94;64.12;77907.75;5115355;28;20197;-69
2023/05/02 07:28:57;;;;;;;3.67;2.70;;;;;;;-145.94;63.66;77895.53;5115764;28;20264;-69
2023/05/02 07:31:24;;;;;;;3.47;3.47;;;;;;;-145.94;63.21;77895.53;5115203;28;20554;-69
2023/05/02 07:33:50;;;;;;;3.03;2.93;;;;;;;-145.94;63.29;77893.47;5115177;28;20193;-69
2023/05/02 07:36:17;;;;;;;3.70;3.50;;;;;;;-145.94;63.00;77907.75;5114462;28;20213;-68
2023/05/02 07:38:43;;;;;;;3.60;3.60;;;;;;;-145.94;62.83;77905.72;5115352;28;20662;-69
2023/05/02 07:41:09;;;;;;;3.60;3.50;;;;;;;-145.94;63.09;77907.75;5114932;28;20205;-69
2023/05/02 07:43:36;;;;;;;3.80;3.60;;;;;;;-145.94;62.77;77905.72;5115039;28;20582;-68
2023/05/02 07:46:04;;;;;;;3.43;3.33;;;;;;;-145.94;62.91;77893.47;5115083;28;20687;-69
2023/05/02 07:48:31;;;;;;;3.37;3.23;;;;;;;-145.94;63.18;77891.44;5115216;28;20585;-69
2023/05/02 07:51:06;;;;;;;3.70;3.57;;;;;;;-145.94;62.76;77883.28;5114855;28;20187;-69
2023/05/02 07:53:32;;;;;;;4.07;3.97;;;;;;;-145.94;62.52;77887.34;5115111;28;20184;-69
2023/05/02 07:55:59;;;;;;;4.90;3.63;;;;;;;-145.94;62.04;77891.44;5114706;28;20205;-69
2023/05/02 07:58:26;;;;;;;3.73;3.53;;;;;;;-145.94;61.88;77885.31;5114743;28;20189;-69
2023/05/02 08:00:53;;;;;;;3.53;3.50;;;;;;;-145.94;61.76;77895.53;5114590;28;20208;-69
2023/05/02 08:03:19;;;;;;;4.07;3.80;;;;;;;-145.94;61.99;77903.69;5114610;28;20185;-69
2023/05/02 08:05:46;;;;;;;4.43;4.13;;;;;;;-145.94;61.89;77903.69;5114779;28;20616;-68
2023/05/02 08:08:12;;;;;;;3.97;3.77;;;;;;;-145.94;61.62;77920.00;5115571;28;20520;-69
2023/05/02 08:10:38;;;;;;;4.20;4.07;;;;;;;-145.94;61.66;77938.34;5114765;28;20196;-69
2023/05/02 08:13:05;;;;;;;3.67;3.63;;;;;;;-145.94;61.90;77958.75;5114418;28;20200;-69
2023/05/02 08:15:31;;;;;;;3.37;3.37;;;;;;;-145.94;61.86;77975.06;5114824;28;20713;-69
2023/05/02 08:17:58;;;;;;;3.67;3.57;;;;;;;-145.94;62.08;77993.44;5114610;28;20579;-69
2023/05/02 08:20:25;;;;;;;3.80;3.70;;;;;;;-145.94;62.60;78005.66;5114502;28;20187;-69
2023/05/02 08:22:51;;;;;;;4.13;4.03;;;;;;;-145.94;62.93;78040.34;5114308;28;20184;-69
2023/05/02 08:25:17;;;;;;;4.17;4.07;;;;;;;-145.94;63.62;78048.50;5114166;28;20185;-69
2023/05/02 08:27:44;;;;;;;5.07;4.90;;;;;;;-145.94;63.51;78050.53;5114276;28;20284;-69
2023/05/02 08:30:11;;;;;;;4.43;4.33;;;;;;;-145.94;63.73;78050.53;5114090;28;20192;-69
2023/05/02 08:32:38;;;;;;;11.03;5.13;;;;;;;-145.94;63.66;78068.91;5114107;28;20196;-69
2023/05/02 08:35:05;;;;;;;6.37;5.13;;;;;;;-145.94;64.05;78083.19;5114088;28;20242;-69
2023/05/02 08:37:31;;;;;;;5.77;5.43;;;;;;;-145.94;64.02;78079.09;5113959;28;20577;-69
2023/05/02 08:39:59;;;;;;;6.00;5.40;;;;;;;-145.94;64.28;78091.34;5113994;28;20648;-69
2023/05/02 08:42:27;;;;;;;4.87;4.57;;;;;;;-145.94;64.63;78101.53;5113840;28;20244;-69
2023/05/02 08:44:53;;;;;;;5.70;5.30;;;;;;;-145.94;64.72;78111.72;5113918;28;20275;-69
2023/05/02 08:47:22;;;;;;;5.37;5.10;;;;;;;-145.94;64.55;78117.84;5112869;28;20212;-69
2023/05/02 08:49:49;;;;;;;5.20;4.90;;;;;;;-145.94;64.56;78119.91;5113818;28;20189;-69
2023/05/02 08:52:18;;;;;;;4.97;4.80;;;;;;;-145.94;64.78;78123.97;5114104;28;20195;-69
2023/05/02 08:54:45;;;;;;;5.53;4.93;;;;;;;-145.94;64.70;78117.84;5113785;28;20184;-69
2023/05/02 08:57:11;;;;;;;4.80;4.70;;;;;;;-145.94;64.91;78117.84;5113675;28;20215;-69
2023/05/02 08:59:38;;;;;;;7.23;5.07;;;;;;;-145.94;65.23;78113.78;5113733;28;20197;-70
2023/05/02 09:02:22;;;;;;;5.27;5.03;;;;;;;-145.94;64.89;78115.81;5113542;28;20235;-69
2023/05/02 09:04:54;;;;;;;5.23;4.87;;;;;;;-145.94;64.91;78132.13;5113706;28;20176;-70
2023/05/02 09:07:21;;;;;;;5.97;5.43;;;;;;;-145.94;64.45;78130.09;5113559;28;20211;-69
2023/05/02 09:09:47;;;;;;;5.97;5.30;;;;;;;-145.94;64.13;78136.22;5113653;28;20684;-69
2023/05/02 09:12:15;;;;;;;4.50;4.27;;;;;;;-145.94;64.05;78126.00;5114190;28;20536;-69
2023/05/02 09:14:42;;;;;;;5.23;4.93;;;;;;;-145.94;64.12;78128.06;5113894;28;20670;-69
2023/05/02 09:17:09;;;;;;;5.50;5.20;;;;;;;-145.94;63.64;78128.06;5113465;28;20204;-69
2023/05/02 09:19:35;;;;;;;5.90;4.77;;;;;;;-145.94;63.37;78121.94;5113569;28;20180;-69
2023/05/02 09:22:02;;;;;;;6.20;4.60;;;;;;;-145.94;63.00;78111.72;5113431;28;20205;-69
2023/05/02 09:24:28;;;;;;;6.50;6.03;;;;;;;-145.94;62.79;78097.47;5113514;28;20213;-69
2023/05/02 09:27:01;;;;;;;4.70;4.43;;;;;;;-145.94;62.40;78091.34;5113306;28;20220;-68
2023/05/02 09:29:34;;;;;;;5.63;5.17;;;;;;;-145.94;62.16;78066.84;5113810;28;20178;-68
2023/05/02 09:32:03;;;;;;;5.63;5.37;;;;;;;-145.94;61.75;78054.63;5114036;28;20173;-68
2023/05/02 09:34:30;;;;;;;6.00;5.00;;;;;;;-145.94;60.09;78054.63;5113295;28;20229;-69
2023/05/02 09:36:57;;;;;;;5.50;5.13;;;;;;;-145.94;59.24;78048.50;5113265;28;20223;-69
2023/05/02 09:39:25;;;;;;;9.13;4.70;;;;;;;-145.94;59.46;78038.31;5113615;28;20586;-69
2023/05/02 09:41:52;;;;;;;5.70;5.20;;;;;;;-145.94;58.70;78034.22;5113206;28;20258;-69
2023/05/02 09:44:21;;;;;;;8.20;6.00;;;;;;;-145.94;58.96;78021.97;5113374;28;20191;-69
2023/05/02 09:46:56;;;;;;;6.20;5.63;;;;;;;-145.94;58.34;78017.91;5113240;28;20571;-69
2023/05/02 09:49:44;;;;;;;6.47;5.63;;;;;;;-145.94;57.58;78009.75;5113831;28;20180;-69
2023/05/02 09:52:16;;;;;;;7.77;5.77;;;;;;;-145.94;57.72;77989.34;5113513;28;20190;-69
2023/05/02 09:54:45;;;;;;;5.20;5.00;;;;;;;-145.94;57.86;77975.06;5113490;28;20256;-69
2023/05/02 09:57:12;;;;;;;7.20;6.20;;;;;;;-145.94;56.77;77960.78;5113668;28;20254;-70
2023/05/02 09:59:39;;;;;;;4.53;4.30;;;;;;;-145.94;56.63;77948.56;5115625;28;20223;-69
2023/05/02 10:02:10;;;;;;;6.30;6.00;;;;;;;-145.94;55.73;77946.50;5117155;28;20236;-69
2023/05/02 10:04:38;;;;;;;6.57;6.03;;;;;;;-145.94;55.54;77930.19;5117542;28;20575;-69
2023/05/02 10:07:09;;;;;;;6.17;5.70;;;;;;;-145.94;55.91;77922.03;5116776;28;20229;-69
2023/05/02 10:09:39;;;;;;;5.97;5.57;;;;;;;-145.94;55.08;77911.84;5116826;28;20568;-69
2023/05/02 10:12:07;;;;;;;6.37;6.00;;;;;;;-145.94;55.49;77905.72;5116876;28;20638;-69
2023/05/02 10:14:41;;;;;;;7.53;6.37;;;;;;;-145.94;54.47;77899.59;5117007;28;20193;-69
2023/05/02 10:17:13;;;;;;;7.43;6.70;;;;;;;-145.94;54.38;77875.13;5116622;28;20244;-69
2023/05/02 10:20:05;;;;;;;6.23;5.73;;;;;;;-145.94;54.21;77869.00;5116956;28;20180;-69
2023/05/02 10:22:33;;;;;;;7.03;6.40;;;;;;;-145.94;53.38;77881.25;5116524;28;20232;-69
2023/05/02 10:25:01;;;;;;;7.63;5.73;;;;;;;-145.94;52.46;77875.13;5116519;28;20188;-69
2023/05/02 10:27:30;;;;;;;5.50;5.07;;;;;;;-145.94;52.25;77877.16;5116278;28;20223;-69
2023/05/02 10:29:58;;;;;;;6.10;5.40;;;;;;;-145.94;52.27;77871.03;5116427;28;20546;-69
2023/05/02 10:32:28;;;;;;;4.77;4.50;;;;;;;-145.94;50.85;77858.81;5116355;28;20190;-69
2023/05/02 10:35:03;;;;;;;5.90;5.00;;;;;;;-145.94;51.57;77869.00;5117125;28;20242;-69
2023/05/02 10:37:32;;;;;;;5.23;4.93;;;;;;;-145.94;51.42;77860.84;5116356;28;20227;-69
2023/05/02 10:39:59;;;;;;;20.53;5.50;;;;;;;-145.94;50.61;77850.66;5116230;28;20190;-68
2023/05/02 10:42:27;;;;;;;4.70;4.40;;;;;;;-145.94;49.84;77875.13;5116329;28;20208;-69
2023/05/02 10:44:53;;;;;;;5.13;4.77;;;;;;;-145.94;49.88;77899.59;5116195;28;20184;-69
2023/05/02 10:47:26;;;;;;;5.13;4.83;;;;;;;-145.94;50.55;77887.34;5116021;28;20711;-69
2023/05/02 10:50:03;;;;;;;4.23;4.03;;;;;;;-145.94;50.26;77877.16;5116644;28;20169;-69
2023/05/02 10:52:37;;;;;;;4.70;4.30;;;;;;;-145.94;49.93;77862.88;5116629;28;20249;-69
2023/05/02 10:55:14;;;;;;;5.40;4.93;;;;;;;-145.94;49.02;77869.00;5116206;28;20205;-69
2023/05/02 10:58:20;;;;;;;5.07;4.67;;;;;;;-145.94;49.29;77858.81;5115766;28;20732;-69
2023/05/02 11:00:46;;;;;;;5.30;5.03;;;;;;;-145.94;49.48;77840.44;5090416;28;20201;-69
2023/05/02 11:03:13;;;;;;;6.07;5.83;;;;;;;-145.94;49.53;77832.28;5116052;28;20230;-68
2023/05/02 11:06:08;;;;;;;7.40;4.77;;;;;;;-145.94;50.20;77809.84;5116198;28;20212;-69
2023/05/02 11:08:34;;;;;;;5.07;4.90;;;;;;;-145.94;49.79;77805.78;5115981;28;20712;-69
2023/05/02 11:11:37;;;;;;;5.13;4.73;;;;;;;-145.94;48.80;77797.63;5114928;28;20189;-69
2023/05/02 11:14:03;;;;;;;5.63;3.97;;;;;;;-145.94;48.49;77803.72;5115840;28;20543;-69
2023/05/02 11:16:57;;;;;;;5.27;4.10;;;;;;;-145.94;47.93;77826.16;5115461;28;20201;-69
2023/05/02 11:19:25;;;;;;;4.40;4.30;;;;;;;-145.94;48.06;77824.13;5115759;28;20238;-70
2023/05/02 11:22:25;;;;;;;4.90;4.70;;;;;;;-145.94;48.53;77840.44;5115644;28;20257;-69